DW6005 Murcia ES current weather conditions

sailwx.info

Wind from 081

Air temperature 7.2° C
Dewpoint 1.1° C

Last reported at 2018-Feb-23 19:56 UTC.
Time now 2018-Feb-23 20:37 UTC

Location: N 38°03' W 001°06'.
View on Google Maps.

See reports from other nearby stations

  
Tides and Currents Weather Stations Pressure Air Temp Water Temp Dewpoint Dewpoint Depression Visibility Wind Speed Wind Dir Waves Ship Positions
date/time (UTC)wind fromknots sea level pressurealtimeterstation pressurevisibilityair tempwater tempwave heightnotes
2018-Feb-23 19:56 081 7.2
2018-Feb-23 19:41 081 7.8
2018-Feb-23 19:26 081 8.3
2018-Feb-23 19:11 080 8.3
2018-Feb-23 18:56 081 8.9
2018-Feb-23 18:41 080 8.9
2018-Feb-23 18:26 080 0 gusting 2 9.4
2018-Feb-23 18:11 081 0 gusting 4 9.4
2018-Feb-23 17:56 082 0 gusting 5 10.0
2018-Feb-23 17:41 083 1 gusting 6 10.0
2018-Feb-23 17:26 082 3 gusting 6 10.6
2018-Feb-23 17:11 074 2 gusting 7 11.1
2018-Feb-23 16:56 096 3 gusting 6 11.1
2018-Feb-23 16:41 059 4 gusting 8 11.1
2018-Feb-23 16:26 105 3 gusting 6 11.7
2018-Feb-23 16:11 069 1 gusting 7 11.7
2018-Feb-23 15:56 063 1 gusting 6 11.7
2018-Feb-23 15:41 074 4 gusting 7 11.7
2018-Feb-23 15:27 082 2 gusting 7 12.2
2018-Feb-23 15:11 101 3 gusting 7 12.2
2018-Feb-23 14:56 080 3 gusting 6 12.2
2018-Feb-23 14:41 082 0 gusting 6 12.2
2018-Feb-23 14:26 074 2 gusting 6 12.2
2018-Feb-23 14:11 065 11.7
2018-Feb-23 13:56 055 11.7
2018-Feb-23 13:41 088 3 gusting 6 11.7
2018-Feb-23 13:26 084 2 gusting 6 11.7
2018-Feb-23 13:11 059 12.2
2018-Feb-23 12:56 169 0 gusting 2 11.7
2018-Feb-23 12:41 263 11.1
2018-Feb-23 12:26 104 0 gusting 3 11.1
2018-Feb-23 12:11 270 0 gusting 7 10.6
2018-Feb-23 11:56 299 3 gusting 6 10.6
2018-Feb-23 11:41 244 1 gusting 6 10.0
2018-Feb-23 11:26 242 0 gusting 7 9.4
2018-Feb-23 11:11 263 9.4
2018-Feb-23 10:55 257 2 gusting 10 8.9
2018-Feb-23 10:40 243 1 gusting 7 8.3
2018-Feb-23 10:25 298 5 gusting 11 8.3
2018-Feb-23 10:10 290 5 gusting 10 7.8
2018-Feb-23 09:55 276 6 gusting 12 7.2
2018-Feb-23 09:40 254 5 gusting 10 7.2
2018-Feb-23 09:25 294 3 gusting 9 6.7
2018-Feb-23 09:10 290 6 gusting 11 6.7
2018-Feb-23 08:55 262 6 gusting 13 6.1
2018-Feb-23 08:40 280 6 gusting 11 6.1
2018-Feb-23 08:25 260 6 gusting 10 5.6
2018-Feb-23 08:10 250 5 gusting 9 5.0
2018-Feb-23 07:55 250 5.0
2018-Feb-23 07:40 243 0 gusting 4 4.4
2018-Feb-23 07:25 173 3.9
2018-Feb-23 07:10 223 0 gusting 8 3.9
2018-Feb-23 06:55 249 2 gusting 9 4.4
2018-Feb-23 06:40 216 0 gusting 6 3.9
2018-Feb-23 06:24 209 0 gusting 5 4.4
2018-Feb-23 06:09 259 1 gusting 7 5.0
2018-Feb-23 05:54 263 1 gusting 6 5.0
2018-Feb-23 05:39 265 5.0
2018-Feb-23 05:24 266 4 gusting 8 5.6
2018-Feb-23 05:09 260 4 gusting 9 5.6
2018-Feb-23 04:54 252 4 gusting 6 5.6
2018-Feb-23 04:39 228 1 gusting 5 5.6
2018-Feb-23 04:24 234 0 gusting 4 6.1
2018-Feb-23 04:09 232 1 gusting 7 6.1
2018-Feb-23 03:54 227 0 gusting 4 6.7
2018-Feb-23 03:39 251 2 gusting 11 6.7
2018-Feb-23 03:24 268 3 gusting 9 7.2
2018-Feb-23 03:09 259 2 gusting 8 7.2
2018-Feb-23 02:54 262 0 gusting 6 6.7
2018-Feb-23 02:39 254 2 gusting 6 6.7
2018-Feb-23 02:24 290 6.7
2018-Feb-23 02:09 292 1 gusting 4 6.7
2018-Feb-23 01:54 291 6.7
2018-Feb-23 01:39 294 6.1
2018-Feb-23 01:24 294 6.7
2018-Feb-23 01:09 294 6.7
2018-Feb-23 00:54 294 7.2
2018-Feb-23 00:39 295 0 gusting 6 7.2
2018-Feb-23 00:24 332 0 gusting 3 7.2
2018-Feb-23 00:09 340 7.8
2018-Feb-22 23:54 340 7.8
2018-Feb-22 23:38 340 7.8
2018-Feb-22 23:23 340 7.8
2018-Feb-22 23:08 339 0 gusting 3 7.8
2018-Feb-22 22:53 340 8.3
2018-Feb-22 22:38 342 8.3
2018-Feb-22 22:23 349 0 gusting 4 8.3
2018-Feb-22 22:08 355 8.3
2018-Feb-22 21:53 355 8.3
2018-Feb-22 21:38 355 0 gusting 3 8.3
2018-Feb-22 21:23 355 8.3
2018-Feb-22 21:08 355 8.3
2018-Feb-22 20:53 355 0 gusting 1 8.9
2018-Feb-22 20:38 355 8.9
2018-Feb-22 20:23 355 9.4
2018-Feb-22 20:08 355 9.4
2018-Feb-22 19:53 355 10.0
2018-Feb-22 19:38 355 10.6
2018-Feb-22 19:23 355 11.1
2018-Feb-22 19:08 355 12.2
2018-Feb-22 18:53 287 0 gusting 4 12.8
2018-Feb-22 18:38 288 1 gusting 6 12.8
2018-Feb-22 18:23 288 1 gusting 6 13.3
2018-Feb-22 18:08 293 3 gusting 6 13.3
2018-Feb-22 17:53 288 13.9
2018-Feb-22 17:38 276 1 gusting 5 13.9
2018-Feb-22 17:23 277 2 gusting 8 14.4
2018-Feb-22 17:08 318 1 gusting 9 14.4
2018-Feb-22 16:53 349 3 gusting 7 15.0
2018-Feb-22 16:38 344 15.0
2018-Feb-22 16:23 061 0 gusting 6 14.4
2018-Feb-22 16:08 061 3 gusting 8 15.0
2018-Feb-22 15:53 011 0 gusting 3 15.0
2018-Feb-22 15:38 294 1 gusting 6 14.4
2018-Feb-22 15:23 328 5 gusting 10 14.4
2018-Feb-22 15:08 284 2 gusting 10 14.4
2018-Feb-22 14:53 325 1 gusting 15 14.4
2018-Feb-22 14:38 348 6 gusting 13 14.4
2018-Feb-22 14:23 299 5 gusting 13 13.9
2018-Feb-22 14:08 355 4 gusting 9 13.9
2018-Feb-22 13:53 308 3 gusting 8 13.9
2018-Feb-22 13:38 308 2 gusting 10 13.9
2018-Feb-22 13:23 302 0 gusting 8 13.3
2018-Feb-22 13:08 329 1 gusting 9 13.3
2018-Feb-22 12:53 288 2 gusting 7 12.8
2018-Feb-22 12:38 280 3 gusting 10 12.8
2018-Feb-22 12:23 279 12.8
2018-Feb-22 12:08 254 12.2
2018-Feb-22 11:53 268 4 gusting 10 12.8
2018-Feb-22 11:37 290 1 gusting 6 12.2
2018-Feb-22 11:22 260 2 gusting 7 11.7
2018-Feb-22 11:07 263 3 gusting 9 11.7
2018-Feb-22 10:52 282 5 gusting 8 11.1
2018-Feb-22 10:37 288 1 gusting 9 10.6
2018-Feb-22 10:22 264 4 gusting 8 10.6
2018-Feb-22 10:07 282 5 gusting 8 10.0
2018-Feb-22 09:52 320 6 gusting 10 10.0
2018-Feb-22 09:37 296 5 gusting 10 9.4
2018-Feb-22 09:22 263 4 gusting 13 8.9
2018-Feb-22 09:07 282 4 gusting 7 8.3
2018-Feb-22 08:52 263 1 gusting 8 7.8
2018-Feb-22 08:37 265 3 gusting 8 7.8
2018-Feb-22 08:22 213 7.2
2018-Feb-22 08:07 213 6.7
2018-Feb-22 07:51 213 6.1
2018-Feb-22 07:36 213 0 gusting 4 6.1
2018-Feb-22 07:21 213 0 gusting 5 6.1
2018-Feb-22 07:06 198 6.1
2018-Feb-22 06:51 198 6.7
2018-Feb-22 06:36 275 2 gusting 9 7.2
2018-Feb-22 06:21 248 2 gusting 12 6.7
2018-Feb-22 06:06 180 6.7
2018-Feb-22 05:51 265 1 gusting 7 6.7
2018-Feb-22 05:36 275 2 gusting 6 6.7
2018-Feb-22 05:21 250 6.7
2018-Feb-22 05:06 250 7.2
2018-Feb-22 04:51 236 1 gusting 7 7.2
2018-Feb-22 04:36 248 1 gusting 4 6.7
2018-Feb-22 04:21 247 6.7
2018-Feb-22 04:06 247 6.7
2018-Feb-22 03:51 247 6.7
2018-Feb-22 03:36 247 7.2
2018-Feb-22 03:21 247 7.2
2018-Feb-22 03:06 247 7.8
2018-Feb-22 02:51 247 7.8
2018-Feb-22 02:36 247 8.3
2018-Feb-22 02:21 247 1 gusting 3 8.3
2018-Feb-22 02:06 247 0 gusting 4 8.9
2018-Feb-22 01:51 247 8.9
2018-Feb-22 01:35 247 8.9
2018-Feb-22 01:20 247 8.9
2018-Feb-22 01:05 247 8.9
2018-Feb-22 00:50 247 8.9
2018-Feb-22 00:35 247 8.9
2018-Feb-22 00:20 074 8.9
2018-Feb-22 00:05 074 8.3
2018-Feb-21 23:50 074 8.3
2018-Feb-21 23:35 074 8.3
2018-Feb-21 23:20 074 8.9
2018-Feb-21 23:05 074 8.9
2018-Feb-21 22:50 074 8.9
2018-Feb-21 22:35 074 8.9
2018-Feb-21 22:20 074 8.9
2018-Feb-21 22:05 075 8.9
2018-Feb-21 21:50 075 0 gusting 2 8.9
2018-Feb-21 21:35 075 0 gusting 3 8.9
2018-Feb-21 21:20 074 0 gusting 3 8.9
2018-Feb-21 21:05 076 1 gusting 6 8.9
2018-Feb-21 20:50 078 2 gusting 6 9.4
2018-Feb-21 20:35 084 5 gusting 9 9.4
2018-Feb-21 20:20 067 6 gusting 12 9.4
2018-Feb-21 20:05 073 6 gusting 11 10.0